WEATHER DATA

YESTERDAY
Time Temp. Dewp. Hum. Bar.
00:01 15.9 10.4 70 1023.5
00:11 15.7 10.3 70 1023.6
00:32 15.3 9.9 70 1023.7
00:42 15.1 9.7 70 1023.8
00:51 15 9.6 70 1023.8
01:01 14.9 9.5 70 1023.8
01:12 14.7 9.5 71 1023.9
01:22 14.5 9.3 71 1023.9
01:32 14.3 9.1 71 1023.9
01:42 14.3 9.1 71 1023.9
01:52 14.1 8.9 71 1023.9
02:02 13.9 8.7 71 1023.9
02:12 13.8 8.6 71 1023.8
02:22 13.6 8.4 71 1023.7
02:32 13.5 8.6 72 1023.8
02:42 13.3 8.4 72 1023.9
02:53 13.2 8.3 72 1023.9
03:03 13.1 8.2 72 1023.9
03:12 13 8.1 72 1023.8
03:22 12.9 8 72 1023.8
03:33 12.7 7.8 72 1023.8
03:43 12.6 7.9 73 1023.8
03:53 12.5 7.8 73 1023.8
04:03 12.4 7.7 73 1023.9
04:13 12.3 7.6 73 1023.9
04:23 12.2 7.5 73 1023.9
04:33 12.1 7.4 73 1023.8
04:44 12.1 7.4 73 1023.8
04:53 12 7.5 74 1023.9
05:03 11.9 7.4 74 1023.9
05:14 11.8 7.3 74 1024
05:24 11.7 7.2 74 1024
05:34 11.6 7.1 74 1024.1
05:43 11.5 7 74 1024.1
05:54 11.5 7.2 75 1024.2
06:04 11.4 7.1 75 1024.2
06:14 11.4 7.1 75 1024.3
06:24 11.3 7 75 1024.4
06:34 11.3 7 75 1024.5
06:44 11.4 7.3 76 1024.6
06:54 11.4 7.3 76 1024.7
07:05 11.5 7.4 76 1024.7
07:15 11.6 7.5 76 1024.7
07:24 11.8 7.7 76 1024.8
07:35 11.9 8 77 1024.9
07:45 12.2 8.3 77 1024.9
07:55 12.4 8.5 77 1024.9
08:05 12.7 9 78 1024.9
08:15 13 9.3 78 1025
08:25 13.2 9.5 78 1025.1
08:35 13.5 9.9 79 1025.1
08:45 13.7 10.1 79 1025.1
08:55 14 10.4 79 1025.3
09:05 14.3 10.7 79 1025.4
09:15 14.6 11 79 1025.5
09:26 15 11.4 79 1025.5
09:36 15.3 11.7 79 1025.5
09:45 15.6 12 79 1025.4
09:56 16 12.4 79 1025.5
10:06 16.3 12.7 79 1025.5
10:16 16.7 13 79 1025.4
10:26 17 13.3 79 1025.3
10:35 17.4 13.7 79 1025.2
10:46 17.9 14 78 1025.2
10:56 18 14.1 78 1025.2
11:06 18.4 14.5 78 1025.2
11:17 19 15.1 78 1025.2
11:26 19.3 15.4 78 1025.3
11:36 19.4 15.3 77 1025.2
11:47 19.9 15.8 77 1025.2
11:57 20.5 16.3 77 1025.2
12:07 21 16.8 77 1025.2
12:17 21.1 16.9 77 1025.2
12:27 20.9 16.5 76 1025.2
12:37 20.8 16.4 76 1025.2
12:46 20.7 16.3 76 1025.3
12:58 21 16.6 76 1025.2
13:07 21.5 17.1 76 1025.1
13:17 22.1 17.7 76 1025
13:27 22.7 18.3 76 1024.9
13:38 23.2 18.5 75 1024.9
13:48 23.1 18.4 75 1024.9
13:57 23.4 18.7 75 1024.8
14:08 23.6 18.9 75 1024.7
14:18 23.9 19.2 75 1024.6
14:28 24.2 19.5 75 1024.6
14:38 24.6 19.9 75 1024.4
14:48 25 20 74 1024.4
14:58 24.7 19.8 74 1024.3
15:08 24.5 19.6 74 1024.3
15:19 24.9 19.9 74 1024.3
15:28 25.3 20.3 74 1024.4
15:38 25 20 74 1024.3
15:48 24.8 19.6 73 1024.3
15:59 24.4 19.2 73 1024.1
16:09 24.2 19.1 73 1024.1
16:18 24.5 19.3 73 1024
16:29 25 19.8 73 1023.9
16:39 25.2 20 73 1023.9
16:49 25.6 20.4 73 1023.9
16:59 25.7 20.5 73 1023.8
17:09 26.3 21.1 73 1023.7
17:19 26.8 21.3 72 1023.7
17:29 26.7 21.2 72 1023.7
17:40 26.2 20.8 72 1023.6
17:50 25.7 20.3 72 1023.6
17:59 25.5 20.1 72 1023.6
18:09 25.7 20.3 72 1023.5
18:20 27 21.5 72 1023.5
18:30 27.6 22.1 72 1023.5
18:40 26.9 21.2 71 1023.5
18:50 26.3 20.6 71 1023.5
19:00 25.6 20 71 1023.4
19:10 25.1 19.5 71 1023.4
19:20 24.8 19.2 71 1023.4
19:31 24.4 18.8 71 1023.3
19:40 24.2 18.4 70 1023.2
19:50 24.1 18.3 70 1023.2
20:00 23.9 18.1 70 1023.1
20:11 23.6 17.8 70 1023
20:21 23.2 17.4 70 1023
20:30 23 17.2 70 1023
20:41 22.6 16.9 70 1023
20:51 22.3 16.6 70 1023
21:01 22 16.3 70 1023.1
21:11 21.6 15.7 69 1023.1
21:21 21.3 15.4 69 1023.1
21:31 21 15.1 69 1023.2
21:41 20.6 14.7 69 1023.3
21:52 20.2 14.3 69 1023.3
22:02 19.8 14 69 1023.4
22:11 19.5 13.7 69 1023.4
22:22 19.1 13.3 69 1023.5
22:32 18.8 13 69 1023.5
22:42 18.5 12.7 69 1023.4
22:51 18.2 12.4 69 1023.4
23:02 18 12 68 1023.4
23:12 17.7 11.7 68 1023.4
23:22 17.5 11.5 68 1023.2
23:32 17.3 11.3 68 1023.2
23:42 17.1 11.2 68 1023.1
23:52 17 11.1 68 1023.1

DAY STATISTIC

2020-07-12
TEMPERATURE
AVERAGE
18.5
HIGH
27.6
18:30
LOW
11.3
06:24
PRESSURE
AVERAGE
1024.2
HIGH
1025.5
09:15
LOW
1023.0
20:11
DEWPOINT
AVERAGE
13.6
HIGH
22.1
18:30
LOW
7.0
05:43
HUMIDITY
AVERAGE
73
HIGH
79
08:35
LOW
68
23:02
TEMPERATURE (°C)
LOW
11.3
HIGH
27.6
AVERAGE
18.5
PRESSURE (hpa)
LOW
1023.0
HIGH
1025.5
AVERAGE
1024.2
DEVICE